Portada
METAR-TAF:

METAR-TAF

Aeroports :

Saint-Denis, Reunió

latitud: 20-53S, longitud: 055-31E, altitud: 21 m

Observació

L'informe es va fer fa 23 minuts, a les 13:00 UTC
Vent 4 kt del Est
Temperatura 25°C
Humitat 69%
Pressió 1018 hPa
Visibilitat 10 km o més
Escasses núvols a una alçada de 4700 ft
Cel cobert a una alçada de 5800 ft

METAR: FMEE 301300Z AUTO 08004KT 9999 FEW047 OVC058 25/19 Q1018 NOSIG

Hora: 17:23 (13:23 UTC)

Pronòstic

L'informe es va fer fa 2 hores i 23 minuts, a les 11:00 UTC
Pronòstic vàlid del 30 a les 12 UTC al 31 a les 18 UTC
Vent 5 kt del Est
Visibilitat 10 km o més
Cel cobert a una alçada de 4200 ft
Evolucionant progressivament
l' 30 a les 15 UTC al 30 a les 17 UTC

TAF: FMEE 301100Z 3012/3118 08005KT 9999 OVC042 BECMG 3015/3017 NSC

Observacions i pronòstics meteorològics de més de 4000 aeroports (METAR i TAF).

Les estacions disponibles són els punts grocs i vermells al mapa.

Posi el ratolí al punt desitjat per veure el nom de l'estació.

Feu clic per veure les observacions i els pronòstics meteorològics.

Per canviar el mapa: feu clic els botons verds amb una creu de color negre per apropar; al botó verd amb un guió per allunyar la imatge; o en les fletxes verdes per a mapes adjacents.


METAR-TAF: